Autaugaville, Alabama
Current Conditions -  °F | °C
As of 6:55 PM on Sunday 23 Nov 2014 (Local Time) from K1A9 Reporting Station
Scattered Clouds Scattered Clouds  
Wind Chill: 60°   Ceiling: Unl
Heat Index: 60°   Visibility: 10mi
Dew Point: 58°   Wind: 5mph
Humidity: 91%   Direction: 170°S
Pressure: 29.68"   Gusts: NA
Location:  32.43°N, 86.65°W
Report Text: K1A9 240055Z AUTO 17004KT 10SM SCT021 16/14 A2968 RMK AO2 T01560142
Loading
Personal Weather Stations






























Interactive Weather Map New forecast layout! Learn more

10-Day Weather Forecast

Advertisements
Track Severe Weather on mobile